createdAt,value
2018-02-25T00:02:22.352Z,3.87
2018-02-25T00:04:50.665Z,5.23
2018-02-25T00:07:18.268Z,4.73
2018-02-25T00:09:45.829Z,5.40
2018-02-25T00:12:13.513Z,4.00
2018-02-25T00:14:41.849Z,4.57
2018-02-25T00:17:09.412Z,5.37
2018-02-25T00:19:36.982Z,4.13
2018-02-25T00:22:04.542Z,4.30
2018-02-25T00:24:32.102Z,4.00
2018-02-25T00:26:59.681Z,4.80
2018-02-25T00:29:28.036Z,4.00
2018-02-25T00:31:55.613Z,4.20
2018-02-25T00:34:23.170Z,4.73
2018-02-25T00:36:50.778Z,5.20
2018-02-25T00:39:18.310Z,6.23
2018-02-25T00:41:46.674Z,6.10
2018-02-25T00:44:14.224Z,4.37
2018-02-25T00:46:41.788Z,5.73
2018-02-25T00:49:09.368Z,4.57
2018-02-25T00:51:37.722Z,5.80
2018-02-25T00:54:05.302Z,5.60
2018-02-25T00:56:33.632Z,4.50
2018-02-25T00:59:01.202Z,5.47
2018-02-25T01:01:28.757Z,6.53
2018-02-25T01:03:56.299Z,6.60
2018-02-25T01:06:23.889Z,7.30
2018-02-25T01:08:51.450Z,7.43
2018-02-25T01:11:19.032Z,5.43
2018-02-25T01:13:46.569Z,5.13
2018-02-25T01:16:14.133Z,7.47
2018-02-25T01:18:41.685Z,5.70
2018-02-25T01:21:09.243Z,3.83
2018-02-25T01:23:36.814Z,4.87
2018-02-25T01:26:04.387Z,6.13
2018-02-25T01:28:33.465Z,4.53
2018-02-25T01:31:01.033Z,4.43
2018-02-25T01:33:28.651Z,6.23
2018-02-25T01:35:56.306Z,5.33
2018-02-25T01:38:23.879Z,4.80
2018-02-25T01:40:51.451Z,6.53
2018-02-25T01:43:19.193Z,5.73
2018-02-25T01:45:46.771Z,4.63
2018-02-25T01:48:14.357Z,7.23
2018-02-25T01:51:05.223Z,6.47
2018-02-25T01:53:32.785Z,5.20
2018-02-25T01:56:00.356Z,8.73
2018-02-25T01:58:27.921Z,5.77
2018-02-25T02:00:55.508Z,4.93
2018-02-25T02:03:23.076Z,5.43
2018-02-25T02:05:50.641Z,6.27
2018-02-25T02:08:18.244Z,5.53
2018-02-25T02:10:45.964Z,7.00
2018-02-25T02:13:13.509Z,6.63
2018-02-25T02:15:41.067Z,5.63
2018-02-25T02:18:08.619Z,6.33
2018-02-25T02:20:36.278Z,6.57
2018-02-25T02:23:03.910Z,4.93
2018-02-25T02:25:31.467Z,6.23
2018-02-25T02:27:59.038Z,6.63
2018-02-25T02:30:26.623Z,7.90
2018-02-25T02:32:54.191Z,5.40
2018-02-25T02:35:21.771Z,5.10
2018-02-25T02:37:49.331Z,5.20
2018-02-25T02:40:17.676Z,6.67
2018-02-25T02:42:45.266Z,6.70
2018-02-25T02:45:12.847Z,6.10
2018-02-25T02:47:41.192Z,6.93
2018-02-25T02:50:08.766Z,4.87
2018-02-25T02:52:36.458Z,6.73
2018-02-25T02:55:04.022Z,5.37
2018-02-25T02:57:31.585Z,6.37
2018-02-25T02:59:59.155Z,8.13
2018-02-25T03:02:26.728Z,6.47
2018-02-25T03:04:54.287Z,7.40
2018-02-25T03:07:21.862Z,8.23
2018-02-25T03:09:49.506Z,6.73
2018-02-25T03:12:17.072Z,5.97
2018-02-25T03:14:44.622Z,7.07
2018-02-25T03:17:12.198Z,5.43
2018-02-25T03:19:39.757Z,6.37
2018-02-25T03:22:07.394Z,7.07
2018-02-25T03:24:35.103Z,8.83
2018-02-25T03:27:02.683Z,7.80
2018-02-25T03:29:31.087Z,5.97
2018-02-25T03:31:58.705Z,8.20
2018-02-25T03:34:27.088Z,8.17
2018-02-25T03:36:56.162Z,7.53
2018-02-25T03:39:23.744Z,7.30
2018-02-25T03:41:51.297Z,5.70
2018-02-25T03:44:18.903Z,5.37
2018-02-25T03:46:46.484Z,6.80
2018-02-25T03:49:14.047Z,7.17
2018-02-25T03:51:41.688Z,6.17
2018-02-25T03:54:09.311Z,7.27
2018-02-25T03:56:36.870Z,8.37
2018-02-25T03:59:04.446Z,7.70
2018-02-25T04:01:32.924Z,7.27
2018-02-25T04:04:01.295Z,5.67
2018-02-25T04:06:28.941Z,6.67
2018-02-25T04:08:56.619Z,7.17
2018-02-25T04:11:24.176Z,6.83
2018-02-25T04:13:51.765Z,5.83
2018-02-25T04:16:19.326Z,7.67
2018-02-25T04:18:46.872Z,7.30
2018-02-25T04:21:15.216Z,7.37
2018-02-25T04:23:42.784Z,7.13
2018-02-25T04:26:10.375Z,6.37
2018-02-25T04:28:38.694Z,8.70
2018-02-25T04:31:06.273Z,7.27
2018-02-25T04:33:33.921Z,8.13
2018-02-25T04:36:01.519Z,6.80
2018-02-25T04:38:29.125Z,7.43
2018-02-25T04:40:56.687Z,6.97
2018-02-25T04:43:24.237Z,6.73
2018-02-25T04:45:51.807Z,7.57
2018-02-25T04:48:19.353Z,10.03
2018-02-25T04:50:46.953Z,8.90
2018-02-25T04:53:14.502Z,8.17
2018-02-25T04:55:42.051Z,7.77
2018-02-25T04:58:09.626Z,6.87
2018-02-25T05:00:37.183Z,8.03
2018-02-25T05:03:04.772Z,8.57
2018-02-25T05:05:32.329Z,8.00
2018-02-25T05:07:59.896Z,7.63
2018-02-25T05:10:27.447Z,8.70
2018-02-25T05:12:55.008Z,8.73
2018-02-25T05:15:22.553Z,8.63
2018-02-25T05:17:50.141Z,6.87
2018-02-25T05:20:17.692Z,9.77
2018-02-25T05:22:45.297Z,8.37
2018-02-25T05:25:12.882Z,8.93
2018-02-25T05:27:40.446Z,7.23
2018-02-25T05:30:07.988Z,8.30
2018-02-25T05:32:35.619Z,8.53
2018-02-25T05:35:03.166Z,7.50
2018-02-25T05:37:31.506Z,9.60
2018-02-25T05:39:59.059Z,8.87
2018-02-25T05:42:26.641Z,8.47
2018-02-25T05:44:54.178Z,7.67
2018-02-25T05:47:21.729Z,10.63
2018-02-25T05:49:49.277Z,7.87
2018-02-25T05:52:16.842Z,8.53
2018-02-25T05:54:44.484Z,8.70
2018-02-25T05:57:11.976Z,9.67
2018-02-25T05:59:39.534Z,9.13
2018-02-25T06:02:07.181Z,8.43
2018-02-25T06:04:34.741Z,8.00
2018-02-25T06:07:03.158Z,9.93
2018-02-25T06:09:30.726Z,8.67
2018-02-25T06:11:58.367Z,9.23
2018-02-25T06:14:25.930Z,10.83
2018-02-25T06:16:53.485Z,8.43
2018-02-25T06:19:21.043Z,8.07
2018-02-25T06:21:48.613Z,9.07
2018-02-25T06:24:16.212Z,10.47
2018-02-25T06:26:44.633Z,9.73
2018-02-25T06:29:12.210Z,8.40
2018-02-25T06:31:39.784Z,9.77
2018-02-25T06:34:07.337Z,9.43
2018-02-25T06:36:34.912Z,8.23
2018-02-25T06:39:02.453Z,7.83
2018-02-25T06:41:30.013Z,8.93
2018-02-25T06:43:57.599Z,7.83
2018-02-25T06:46:25.174Z,10.00
2018-02-25T06:48:53.508Z,8.93
2018-02-25T06:51:21.094Z,8.43
2018-02-25T06:53:48.692Z,8.80
2018-02-25T06:56:16.263Z,8.10
2018-02-25T06:58:43.849Z,8.17
2018-02-25T07:01:11.413Z,9.03
2018-02-25T07:03:38.973Z,8.30
2018-02-25T07:06:06.605Z,7.17
2018-02-25T07:08:34.201Z,9.27
2018-02-25T07:11:01.846Z,9.47
2018-02-25T07:13:29.422Z,8.97
2018-02-25T07:15:56.978Z,10.90
2018-02-25T07:18:24.550Z,8.63
2018-02-25T07:20:52.112Z,11.63
2018-02-25T07:23:19.663Z,8.80
2018-02-25T07:25:47.338Z,8.63
2018-02-25T07:28:15.015Z,8.27
2018-02-25T07:30:42.807Z,7.50
2018-02-25T07:33:10.384Z,8.27
2018-02-25T07:35:37.975Z,10.43
2018-02-25T07:38:05.509Z,8.57
2018-02-25T07:40:33.202Z,8.23
2018-02-25T07:43:00.813Z,8.00
2018-02-25T07:45:28.465Z,7.77
2018-02-25T07:47:56.031Z,8.13
2018-02-25T07:50:23.600Z,8.30
2018-02-25T07:52:51.167Z,7.97
2018-02-25T07:55:18.744Z,8.83
2018-02-25T07:57:46.328Z,8.50
2018-02-25T08:00:13.958Z,7.63
2018-02-25T08:02:41.529Z,8.27
2018-02-25T08:05:09.296Z,7.53
2018-02-25T08:07:36.843Z,10.87
2018-02-25T08:10:04.509Z,8.33
2018-02-25T08:12:32.059Z,8.17
2018-02-25T08:14:59.649Z,8.33
2018-02-25T08:17:27.393Z,8.23
2018-02-25T08:19:55.081Z,7.60
2018-02-25T08:22:22.610Z,8.40
2018-02-25T08:24:50.193Z,8.00
2018-02-25T08:27:17.762Z,9.47
2018-02-25T08:29:45.309Z,8.27
2018-02-25T08:32:12.895Z,8.83
2018-02-25T08:34:41.367Z,9.70
2018-02-25T08:37:08.953Z,8.43
2018-02-25T08:39:37.299Z,8.07
2018-02-25T08:42:06.403Z,8.63
2018-02-25T08:44:33.989Z,8.30
2018-02-25T08:47:02.334Z,8.60
2018-02-25T08:49:29.874Z,7.37
2018-02-25T08:51:57.477Z,9.40
2018-02-25T08:54:25.804Z,9.83
2018-02-25T08:56:53.509Z,10.57
2018-02-25T08:59:21.941Z,10.27
2018-02-25T09:01:49.570Z,7.53
2018-02-25T09:04:17.912Z,10.80
2018-02-25T09:06:45.469Z,9.13
2018-02-25T09:09:13.036Z,9.70
2018-02-25T09:11:40.596Z,9.20
2018-02-25T09:14:08.201Z,8.70
2018-02-25T09:16:36.492Z,10.33
2018-02-25T09:19:04.089Z,9.27
2018-02-25T09:21:31.641Z,7.43
2018-02-25T09:23:59.549Z,6.83
2018-02-25T09:26:27.106Z,6.53
2018-02-25T09:28:55.287Z,6.63
2018-02-25T09:31:23.623Z,9.60
2018-02-25T09:33:52.072Z,7.67
2018-02-25T09:36:19.609Z,6.73
2018-02-25T09:38:47.955Z,6.93
2018-02-25T09:41:15.501Z,6.57
2018-02-25T09:43:43.462Z,7.60
2018-02-25T09:46:11.133Z,7.70
2018-02-25T09:48:38.692Z,6.07
2018-02-25T09:51:06.362Z,6.47
2018-02-25T09:53:34.734Z,7.90
2018-02-25T09:56:02.325Z,7.53
2018-02-25T09:58:29.951Z,8.60
2018-02-25T10:00:57.733Z,7.43
2018-02-25T10:03:25.306Z,8.77
2018-02-25T10:05:52.910Z,6.63
2018-02-25T10:08:20.506Z,7.13
2018-02-25T10:10:48.077Z,10.30
2018-02-25T10:13:15.658Z,7.03
2018-02-25T10:15:43.213Z,6.60
2018-02-25T10:18:11.599Z,6.83
2018-02-25T10:20:39.948Z,6.50
2018-02-25T10:23:07.509Z,6.70
2018-02-25T10:25:36.593Z,8.87
2018-02-25T10:28:04.162Z,6.07
2018-02-25T10:30:31.749Z,5.93
2018-02-25T10:32:59.346Z,5.93
2018-02-25T10:35:26.917Z,7.70
2018-02-25T10:37:54.590Z,6.83
2018-02-25T10:40:22.186Z,7.57
2018-02-25T10:42:49.744Z,5.20
2018-02-25T10:45:17.383Z,7.53
2018-02-25T10:47:44.956Z,6.03
2018-02-25T10:50:14.036Z,5.70
2018-02-25T10:52:41.636Z,5.97
2018-02-25T10:55:09.990Z,5.90
2018-02-25T10:57:37.584Z,5.43
2018-02-25T11:00:05.145Z,5.90
2018-02-25T11:02:32.745Z,8.93
2018-02-25T11:05:00.402Z,6.10
2018-02-25T11:07:27.949Z,7.33
2018-02-25T11:09:55.529Z,4.90
2018-02-25T11:12:23.138Z,4.60
2018-02-25T11:14:51.461Z,5.53
2018-02-25T11:17:19.021Z,5.73
2018-02-25T11:19:46.585Z,5.67
2018-02-25T11:22:14.150Z,4.83
2018-02-25T11:24:41.753Z,5.30
2018-02-25T11:27:09.310Z,5.33
2018-02-25T11:29:37.731Z,6.03
2018-02-25T11:32:05.298Z,5.27
2018-02-25T11:34:32.888Z,6.00
2018-02-25T11:37:00.466Z,5.13
2018-02-25T11:39:28.045Z,5.23
2018-02-25T11:41:56.582Z,6.33
2018-02-25T11:44:24.146Z,8.27
2018-02-25T11:46:51.714Z,5.40
2018-02-25T11:49:19.272Z,6.67
2018-02-25T11:51:46.832Z,5.43
2018-02-25T11:54:14.390Z,7.07
2018-02-25T11:56:41.975Z,6.87
2018-02-25T11:59:09.533Z,4.97
2018-02-25T12:01:37.124Z,4.47
2018-02-25T12:04:04.681Z,5.37
2018-02-25T12:06:32.308Z,5.27
2018-02-25T12:09:00.658Z,4.97
2018-02-25T12:11:28.237Z,6.90
2018-02-25T12:13:55.785Z,4.47
2018-02-25T12:16:23.402Z,6.50
2018-02-25T12:18:50.993Z,6.40
2018-02-25T12:21:18.677Z,5.53
2018-02-25T12:23:46.245Z,5.00
2018-02-25T12:26:13.817Z,5.73
2018-02-25T12:28:42.160Z,5.90
2018-02-25T12:31:09.803Z,5.57
2018-02-25T12:33:37.358Z,5.97
2018-02-25T12:36:04.901Z,3.43
2018-02-25T12:38:32.469Z,5.37
2018-02-25T12:41:00.044Z,3.97
2018-02-25T12:43:27.604Z,5.20
2018-02-25T12:45:55.158Z,4.90
2018-02-25T12:48:22.731Z,4.67
2018-02-25T12:50:50.284Z,4.50
2018-02-25T12:53:17.850Z,3.90
2018-02-25T12:55:45.405Z,4.43
2018-02-25T12:58:12.986Z,3.53
2018-02-25T13:00:40.546Z,4.53
2018-02-25T13:03:08.134Z,3.77
2018-02-25T13:05:35.711Z,3.97
2018-02-25T13:08:03.293Z,4.50
2018-02-25T13:10:30.875Z,3.43
2018-02-25T13:12:58.434Z,4.83
2018-02-25T13:15:26.003Z,4.40
2018-02-25T13:17:53.699Z,3.87
2018-02-25T13:20:22.210Z,3.60
2018-02-25T13:22:49.769Z,5.20
2018-02-25T13:25:18.151Z,3.43
2018-02-25T13:27:45.757Z,3.20
2018-02-25T13:30:14.498Z,4.17
2018-02-25T13:32:42.087Z,4.17
2018-02-25T13:35:09.667Z,3.57
2018-02-25T13:37:37.347Z,4.97
2018-02-25T13:40:04.940Z,3.80
2018-02-25T13:42:32.497Z,3.83
2018-02-25T13:45:00.058Z,3.37
2018-02-25T13:47:27.624Z,3.80
2018-02-25T13:49:55.246Z,3.63
2018-02-25T13:52:22.823Z,4.13
2018-02-25T13:54:51.152Z,3.47
2018-02-25T13:57:18.750Z,4.00
2018-02-25T13:59:46.310Z,2.80
2018-02-25T14:02:13.904Z,5.07
2018-02-25T14:04:41.449Z,3.80
2018-02-25T14:07:09.791Z,3.60
2018-02-25T14:09:37.354Z,5.33
2018-02-25T14:12:05.006Z,3.83
2018-02-25T14:14:32.578Z,3.07
2018-02-25T14:17:00.122Z,2.53
2018-02-25T14:19:27.678Z,3.80
2018-02-25T14:21:55.270Z,3.43
2018-02-25T14:24:22.842Z,4.40
2018-02-25T14:26:51.169Z,2.80
2018-02-25T14:29:18.745Z,2.60
2018-02-25T14:31:46.324Z,3.27
2018-02-25T14:34:14.051Z,4.50
2018-02-25T14:36:41.590Z,4.13
2018-02-25T14:39:09.181Z,3.13
2018-02-25T14:41:36.808Z,2.93
2018-02-25T14:44:04.398Z,2.47
2018-02-25T14:46:31.971Z,4.10
2018-02-25T14:48:59.625Z,2.87
2018-02-25T14:51:27.189Z,3.53
2018-02-25T14:53:54.755Z,2.93
2018-02-25T14:56:22.322Z,3.53
2018-02-25T14:58:49.904Z,3.10
2018-02-25T15:01:18.364Z,2.97
2018-02-25T15:03:45.926Z,3.43
2018-02-25T15:06:13.476Z,2.80
2018-02-25T15:08:41.089Z,3.30
2018-02-25T15:11:08.664Z,4.50
2018-02-25T15:13:36.250Z,3.87
2018-02-25T15:16:03.816Z,2.80
2018-02-25T15:18:31.397Z,2.83
2018-02-25T15:20:59.192Z,3.07
2018-02-25T15:23:26.781Z,3.57
2018-02-25T15:25:54.511Z,2.43
2018-02-25T15:28:22.842Z,3.40
2018-02-25T15:30:50.438Z,3.50
2018-02-25T15:33:18.774Z,5.57
2018-02-25T15:35:46.417Z,3.83
2018-02-25T15:38:14.085Z,4.03
2018-02-25T15:40:41.837Z,4.03
2018-02-25T15:43:09.378Z,4.00
2018-02-25T15:45:37.018Z,4.67
2018-02-25T15:48:05.554Z,4.23
2018-02-25T15:50:33.114Z,6.43
2018-02-25T15:53:00.662Z,3.80
2018-02-25T15:55:28.253Z,4.40
2018-02-25T15:57:55.864Z,3.13
2018-02-25T16:00:23.434Z,5.00
2018-02-25T16:02:51.049Z,3.10
2018-02-25T16:05:18.619Z,3.33
2018-02-25T16:07:46.331Z,4.03
2018-02-25T16:10:13.992Z,4.50
2018-02-25T16:12:41.612Z,3.83
2018-02-25T16:15:09.946Z,4.20
2018-02-25T16:17:37.719Z,5.83
2018-02-25T16:20:05.262Z,4.83
2018-02-25T16:22:32.837Z,5.13
2018-02-25T16:25:00.395Z,4.83
2018-02-25T16:27:28.039Z,3.83
2018-02-25T16:29:55.670Z,4.73
2018-02-25T16:32:23.985Z,6.70
2018-02-25T16:34:51.607Z,5.87
2018-02-25T16:37:20.030Z,4.50
2018-02-25T16:39:47.634Z,4.93
2018-02-25T16:42:15.198Z,6.17
2018-02-25T16:44:42.865Z,6.90
2018-02-25T16:47:11.217Z,5.57
2018-02-25T16:49:38.812Z,6.80
2018-02-25T16:52:07.164Z,5.07
2018-02-25T16:54:34.807Z,5.17
2018-02-25T16:57:03.112Z,4.00
2018-02-25T16:59:31.482Z,4.63
2018-02-25T17:02:00.071Z,5.90
2018-02-25T17:04:27.670Z,6.60
2018-02-25T17:06:55.264Z,5.97
2018-02-25T17:09:22.810Z,4.67
2018-02-25T17:11:50.393Z,11.67
2018-02-25T17:14:17.983Z,6.13
2018-02-25T17:16:45.575Z,5.10
2018-02-25T17:19:13.219Z,4.70
2018-02-25T17:21:41.723Z,4.93
2018-02-25T17:24:09.322Z,4.10
2018-02-25T17:26:36.909Z,5.23
2018-02-25T17:29:04.496Z,3.17
2018-02-25T17:31:32.972Z,3.83
2018-02-25T17:34:01.302Z,3.80
2018-02-25T17:36:30.844Z,3.93
2018-02-25T17:38:58.475Z,2.50
2018-02-25T17:41:26.065Z,4.33
2018-02-25T17:43:54.423Z,4.27
2018-02-25T17:46:22.754Z,4.40
2018-02-25T17:48:50.330Z,3.90
2018-02-25T17:51:17.931Z,4.20
2018-02-25T17:53:45.501Z,4.53
2018-02-25T17:56:13.848Z,6.03
2018-02-25T17:58:42.944Z,4.33
2018-02-25T18:01:10.507Z,3.80
2018-02-25T18:03:39.623Z,5.13
2018-02-25T18:06:07.188Z,4.10
2018-02-25T18:08:35.593Z,4.13
2018-02-25T18:11:03.226Z,3.40
2018-02-25T18:13:30.822Z,4.17
2018-02-25T18:15:58.463Z,3.73
2018-02-25T18:18:26.955Z,5.07
2018-02-25T18:20:54.582Z,6.30
2018-02-25T18:23:22.328Z,3.80
2018-02-25T18:25:49.897Z,3.40
2018-02-25T18:28:17.467Z,4.80
2018-02-25T18:30:45.019Z,4.87
2018-02-25T18:33:12.596Z,4.10
2018-02-25T18:35:40.184Z,4.43
2018-02-25T18:38:07.758Z,4.80
2018-02-25T18:40:35.318Z,4.20
2018-02-25T18:43:02.958Z,4.60
2018-02-25T18:45:30.531Z,2.30
2018-02-25T18:47:58.141Z,3.77
2018-02-25T18:50:25.788Z,3.90
2018-02-25T18:52:53.440Z,3.70
2018-02-25T18:55:21.002Z,2.70
2018-02-25T18:57:48.594Z,4.20
2018-02-25T19:00:16.162Z,2.73
2018-02-25T19:02:44.537Z,6.00
2018-02-25T19:05:12.106Z,3.30
2018-02-25T19:07:39.686Z,4.30
2018-02-25T19:10:08.055Z,5.93
2018-02-25T19:12:36.408Z,2.80
2018-02-25T19:15:03.973Z,2.93
2018-02-25T19:17:31.607Z,4.30
2018-02-25T19:19:59.147Z,5.00
2018-02-25T19:22:26.776Z,5.03
2018-02-25T19:24:54.331Z,5.17
2018-02-25T19:27:22.685Z,6.97
2018-02-25T19:29:50.271Z,4.53
2018-02-25T19:32:18.732Z,4.07
2018-02-25T19:34:46.480Z,5.50
2018-02-25T19:37:20.366Z,3.87
2018-02-25T19:39:53.622Z,4.27
2018-02-25T19:42:21.968Z,5.87
2018-02-25T19:44:49.558Z,5.20
2018-02-25T19:47:17.892Z,5.23
2018-02-25T19:49:45.497Z,4.27
2018-02-25T19:52:14.010Z,4.97
2018-02-25T19:54:41.794Z,3.63
2018-02-25T19:57:09.378Z,4.60
2018-02-25T19:59:36.974Z,7.30
2018-02-25T20:02:04.529Z,4.17
2018-02-25T20:04:32.959Z,4.27
2018-02-25T20:07:00.687Z,4.40
2018-02-25T20:09:28.266Z,3.97
2018-02-25T20:11:55.858Z,4.40
2018-02-25T20:14:23.466Z,5.80
2018-02-25T20:16:51.055Z,4.37
2018-02-25T20:19:18.617Z,3.97
2018-02-25T20:21:46.196Z,6.53
2018-02-25T20:24:13.784Z,3.83
2018-02-25T20:26:41.372Z,5.37
2018-02-25T20:29:08.930Z,4.07
2018-02-25T20:31:36.508Z,4.17
2018-02-25T20:34:04.068Z,5.40
2018-02-25T20:36:31.721Z,4.67
2018-02-25T20:38:59.317Z,3.87
2018-02-25T20:41:26.954Z,3.73
2018-02-25T20:43:54.550Z,5.10
2018-02-25T20:46:22.166Z,4.60
2018-02-25T20:48:49.756Z,4.27
2018-02-25T20:51:17.400Z,4.90
2018-02-25T20:53:45.001Z,4.87
2018-02-25T20:56:12.578Z,4.70
2018-02-25T20:58:40.954Z,3.63
2018-02-25T21:01:08.516Z,3.43
2018-02-25T21:03:37.041Z,3.97
2018-02-25T21:06:04.647Z,4.60
2018-02-25T21:08:32.381Z,4.27
2018-02-25T21:11:00.043Z,4.40
2018-02-25T21:13:27.623Z,4.43
2018-02-25T21:15:55.212Z,3.77
2018-02-25T21:18:23.576Z,4.57
2018-02-25T21:20:51.180Z,5.13
2018-02-25T21:23:18.754Z,3.47
2018-02-25T21:25:46.317Z,4.27
2018-02-25T21:28:14.044Z,5.73
2018-02-25T21:30:42.419Z,5.03
2018-02-25T21:33:10.787Z,3.63
2018-02-25T21:35:38.361Z,4.20
2018-02-25T21:38:06.689Z,3.80
2018-02-25T21:40:34.234Z,4.40
2018-02-25T21:43:01.805Z,3.00
2018-02-25T21:45:29.365Z,5.80
2018-02-25T21:47:56.979Z,4.17
2018-02-25T21:50:24.550Z,5.47
2018-02-25T21:52:52.153Z,4.63
2018-02-25T21:55:21.341Z,5.47
2018-02-25T21:57:54.634Z,6.07
2018-02-25T22:00:27.814Z,5.70
2018-02-25T22:03:00.956Z,3.83
2018-02-25T22:05:28.521Z,5.70
2018-02-25T22:07:56.931Z,4.80
2018-02-25T22:10:24.486Z,3.67
2018-02-25T22:12:52.041Z,3.97
2018-02-25T22:15:19.617Z,4.00
2018-02-25T22:17:47.185Z,3.93
2018-02-25T22:20:14.853Z,4.37
2018-02-25T22:22:42.430Z,9.17
2018-02-25T22:25:10.030Z,4.23
2018-02-25T22:27:38.378Z,3.33
2018-02-25T22:30:05.950Z,5.30
2018-02-25T22:32:33.538Z,4.23
2018-02-25T22:35:01.976Z,4.30
2018-02-25T22:37:29.598Z,5.63
2018-02-25T22:39:57.161Z,4.50
2018-02-25T22:42:24.744Z,4.03
2018-02-25T22:44:52.435Z,5.77
2018-02-25T22:47:20.030Z,5.33
2018-02-25T22:49:47.613Z,4.80
2018-02-25T22:52:15.217Z,5.33
2018-02-25T22:54:42.784Z,5.73
2018-02-25T22:57:10.358Z,4.70
2018-02-25T22:59:38.684Z,4.60
2018-02-25T23:02:06.264Z,4.33
2018-02-25T23:04:33.829Z,5.67
2018-02-25T23:07:01.397Z,6.53
2018-02-25T23:09:28.974Z,6.10
2018-02-25T23:11:57.342Z,5.10
2018-02-25T23:14:25.696Z,5.33
2018-02-25T23:16:53.289Z,5.27
2018-02-25T23:19:21.644Z,8.03
2018-02-25T23:21:49.210Z,4.67
2018-02-25T23:24:16.782Z,7.73
2018-02-25T23:26:45.225Z,5.40
2018-02-25T23:29:12.781Z,7.17
2018-02-25T23:31:40.403Z,5.17
2018-02-25T23:34:08.721Z,6.13
2018-02-25T23:36:36.372Z,4.60
2018-02-25T23:39:03.938Z,6.27
2018-02-25T23:41:31.500Z,6.13
2018-02-25T23:43:59.058Z,6.83
2018-02-25T23:46:26.628Z,6.37
2018-02-25T23:48:54.199Z,6.10
2018-02-25T23:51:21.761Z,7.03
2018-02-25T23:53:49.371Z,5.87
2018-02-25T23:56:16.934Z,8.83
2018-02-25T23:58:44.584Z,6.53
